createdAt,value
2018-12-18T00:01:54.101Z,100637.18
2018-12-18T00:04:22.157Z,100633.00
2018-12-18T00:06:50.258Z,100630.70
2018-12-18T00:09:18.322Z,100620.06
2018-12-18T00:11:46.387Z,100616.00
2018-12-18T00:14:14.463Z,100622.63
2018-12-18T00:16:42.708Z,100614.23
2018-12-18T00:19:10.758Z,100617.99
2018-12-18T00:21:38.829Z,100621.91
2018-12-18T00:24:06.904Z,100619.63
2018-12-18T00:26:34.978Z,100617.68
2018-12-18T00:29:03.110Z,100621.30
2018-12-18T00:31:34.166Z,100621.19
2018-12-18T00:34:02.387Z,100610.14
2018-12-18T00:36:30.538Z,100613.23
2018-12-18T00:38:58.591Z,100615.76
2018-12-18T00:41:26.651Z,100616.97
2018-12-18T00:43:54.753Z,100622.59
2018-12-18T00:46:22.795Z,100613.75
2018-12-18T00:48:50.847Z,100616.04
2018-12-18T00:51:18.910Z,100616.71
2018-12-18T00:53:46.962Z,100612.88
2018-12-18T00:56:15.030Z,100611.56
2018-12-18T00:58:44.299Z,100611.78
2018-12-18T01:01:12.355Z,100603.11
2018-12-18T01:03:40.407Z,100597.21
2018-12-18T01:06:08.590Z,100599.91
2018-12-18T01:08:36.642Z,100600.59
2018-12-18T01:11:04.758Z,100602.61
2018-12-18T01:13:32.806Z,100596.42
2018-12-18T01:16:00.961Z,100600.83
2018-12-18T01:18:29.010Z,100599.41
2018-12-18T01:20:57.109Z,100597.59
2018-12-18T01:23:25.434Z,100596.52
2018-12-18T01:25:53.526Z,100599.95
2018-12-18T01:28:21.587Z,100600.73
2018-12-18T01:30:49.695Z,100602.83
2018-12-18T01:33:17.760Z,100602.59
2018-12-18T01:35:45.816Z,100611.56
2018-12-18T01:38:13.961Z,100605.41
2018-12-18T01:40:42.126Z,100605.11
2018-12-18T01:43:10.195Z,100602.11
2018-12-18T01:45:38.280Z,100600.23
2018-12-18T01:48:06.338Z,100601.62
2018-12-18T01:50:34.392Z,100602.02
2018-12-18T01:53:02.574Z,100590.59
2018-12-18T01:55:30.639Z,100597.52
2018-12-18T01:57:58.694Z,100596.97
2018-12-18T02:00:26.823Z,100601.54
2018-12-18T02:02:54.951Z,100597.98
2018-12-18T02:05:23.775Z,100602.02
2018-12-18T02:07:51.903Z,100606.21
2018-12-18T02:10:19.951Z,100597.30
2018-12-18T02:12:48.007Z,100595.42
2018-12-18T02:15:16.104Z,100582.70
2018-12-18T02:17:44.161Z,100590.49
2018-12-18T02:20:12.247Z,100593.19
2018-12-18T02:22:40.341Z,100600.61
2018-12-18T02:25:08.467Z,100593.66
2018-12-18T02:27:36.601Z,100590.04
2018-12-18T02:30:06.300Z,100592.72
2018-12-18T02:32:34.447Z,100586.23
2018-12-18T02:35:02.542Z,100585.97
2018-12-18T02:37:30.685Z,100579.33
2018-12-18T02:39:58.790Z,100581.35
2018-12-18T02:42:26.920Z,100582.83
2018-12-18T02:44:55.098Z,100579.05
2018-12-18T02:47:24.110Z,100581.42
2018-12-18T02:49:52.166Z,100583.23
2018-12-18T02:52:20.222Z,100576.33
2018-12-18T02:54:48.278Z,100576.94
2018-12-18T02:57:16.335Z,100582.08
2018-12-18T02:59:44.379Z,100586.45
2018-12-18T03:02:12.471Z,100584.88
2018-12-18T03:04:40.528Z,100574.85
2018-12-18T03:07:08.661Z,100566.98
2018-12-18T03:09:36.721Z,100569.71
2018-12-18T03:12:04.888Z,100563.09
2018-12-18T03:14:32.994Z,100558.42
2018-12-18T03:17:01.122Z,100561.73
2018-12-18T03:19:29.185Z,100556.14
2018-12-18T03:21:57.239Z,100546.16
2018-12-18T03:24:25.303Z,100542.59
2018-12-18T03:26:53.346Z,100537.23
2018-12-18T03:29:22.069Z,100540.46
2018-12-18T03:31:51.958Z,100538.80
2018-12-18T03:34:20.087Z,100533.31
2018-12-18T03:36:48.153Z,100532.10
2018-12-18T03:39:16.208Z,100532.73
2018-12-18T03:41:44.386Z,100528.63
2018-12-18T03:44:12.430Z,100525.83
2018-12-18T03:46:40.630Z,100516.41
2018-12-18T03:49:08.682Z,100514.89
2018-12-18T03:51:36.735Z,100517.09
2018-12-18T03:54:04.964Z,100516.13
2018-12-18T03:56:33.086Z,100516.62
2018-12-18T03:59:01.147Z,100505.61
2018-12-18T04:01:29.203Z,100502.09
2018-12-18T04:03:57.266Z,100501.35
2018-12-18T04:06:25.318Z,100506.30
2018-12-18T04:08:53.477Z,100497.13
2018-12-18T04:11:21.710Z,100496.80
2018-12-18T04:13:49.851Z,100501.02
2018-12-18T04:16:17.931Z,100496.64
2018-12-18T04:18:46.142Z,100494.28
2018-12-18T04:21:14.204Z,100489.62
2018-12-18T04:23:42.350Z,100487.53
2018-12-18T04:26:10.446Z,100487.11
2018-12-18T04:28:38.506Z,100494.18
2018-12-18T04:31:06.607Z,100491.92
2018-12-18T04:33:34.648Z,100489.42
2018-12-18T04:36:02.702Z,100491.61
2018-12-18T04:38:30.768Z,100488.50
2018-12-18T04:40:58.824Z,100490.67
2018-12-18T04:43:26.903Z,100492.05
2018-12-18T04:45:54.964Z,100495.10
2018-12-18T04:48:23.094Z,100493.81
2018-12-18T04:50:51.146Z,100488.30
2018-12-18T04:53:19.210Z,100495.52
2018-12-18T04:55:47.621Z,100495.50
2018-12-18T04:58:15.671Z,100496.52
2018-12-18T05:00:43.810Z,100496.67
2018-12-18T05:03:11.943Z,100493.20
2018-12-18T05:05:40.025Z,100496.48
2018-12-18T05:08:08.124Z,100498.83
2018-12-18T05:10:36.182Z,100501.78
2018-12-18T05:13:04.283Z,100507.19
2018-12-18T05:15:32.330Z,100502.48
2018-12-18T05:18:00.387Z,100505.37
2018-12-18T05:20:28.523Z,100504.12
2018-12-18T05:22:56.642Z,100506.97
2018-12-18T05:25:24.785Z,100503.64
2018-12-18T05:27:52.848Z,100503.05
2018-12-18T05:30:20.898Z,100507.56
2018-12-18T05:32:49.906Z,100504.12
2018-12-18T05:35:17.981Z,100509.95
2018-12-18T05:37:46.034Z,100499.49
2018-12-18T05:40:14.080Z,100501.75
2018-12-18T05:42:42.155Z,100499.36
2018-12-18T05:45:10.230Z,100505.11
2018-12-18T05:47:38.287Z,100498.27
2018-12-18T05:50:07.026Z,100493.20
2018-12-18T05:52:35.074Z,100499.30
2018-12-18T05:55:03.228Z,100497.41
2018-12-18T05:57:31.287Z,100497.63
2018-12-18T05:59:59.478Z,100495.27
2018-12-18T06:02:27.525Z,100495.31
2018-12-18T06:04:55.662Z,100498.47
2018-12-18T06:07:23.732Z,100504.63
2018-12-18T06:09:51.873Z,100502.31
2018-12-18T06:12:19.935Z,100501.87
2018-12-18T06:14:48.010Z,100502.09
2018-12-18T06:17:16.064Z,100505.80
2018-12-18T06:19:44.306Z,100510.53
2018-12-18T06:22:12.372Z,100507.84
2018-12-18T06:24:40.435Z,100514.71
2018-12-18T06:27:08.490Z,100511.81
2018-12-18T06:29:36.563Z,100512.58
2018-12-18T06:32:04.696Z,100505.90
2018-12-18T06:34:32.828Z,100505.34
2018-12-18T06:37:00.889Z,100501.33
2018-12-18T06:39:29.469Z,100494.84
2018-12-18T06:41:57.526Z,100484.70
2018-12-18T06:44:25.678Z,100481.78
2018-12-18T06:46:53.743Z,100481.79
2018-12-18T06:49:21.833Z,100479.98
2018-12-18T06:51:49.894Z,100472.87
2018-12-18T06:54:18.006Z,100467.72
2018-12-18T06:56:46.063Z,100458.66
2018-12-18T06:59:14.242Z,100458.53
2018-12-18T07:01:42.298Z,100455.45
2018-12-18T07:04:10.367Z,100452.28
2018-12-18T07:06:38.461Z,100450.66
2018-12-18T07:09:08.594Z,100447.73
2018-12-18T07:11:36.647Z,100442.22
2018-12-18T07:14:04.738Z,100445.16
2018-12-18T07:16:33.571Z,100445.11
2018-12-18T07:19:01.733Z,100440.52
2018-12-18T07:24:32.807Z,100438.77
2018-12-18T07:27:00.875Z,100441.96
2018-12-18T07:29:28.933Z,100434.73
2018-12-18T07:31:59.127Z,100434.18
2018-12-18T07:34:33.237Z,100437.80
2018-12-18T07:36:57.211Z,100443.45
2018-12-18T07:39:25.259Z,100438.91
2018-12-18T07:41:53.401Z,100445.50
2018-12-18T07:44:21.491Z,100441.32
2018-12-18T07:46:49.522Z,100449.07
2018-12-18T07:49:17.598Z,100454.85
2018-12-18T07:51:45.738Z,100462.62
2018-12-18T07:54:13.782Z,100460.17
2018-12-18T07:56:42.130Z,100466.86
2018-12-18T07:59:10.190Z,100465.11
2018-12-18T08:01:38.322Z,100453.67
2018-12-18T08:04:06.409Z,100443.41
2018-12-18T08:06:34.550Z,100441.52
2018-12-18T08:09:02.822Z,100430.95
2018-12-18T08:11:30.989Z,100427.06
2018-12-18T08:14:00.188Z,100426.87
2018-12-18T08:16:28.337Z,100424.96
2018-12-18T08:18:56.390Z,100419.13
2018-12-18T08:21:24.439Z,100417.28
2018-12-18T08:23:52.578Z,100407.48
2018-12-18T08:26:20.630Z,100404.72
2018-12-18T08:28:48.704Z,100404.48
2018-12-18T08:31:16.834Z,100398.88
2018-12-18T08:33:44.895Z,100398.56
2018-12-18T08:36:12.965Z,100403.88
2018-12-18T08:38:41.238Z,100413.05
2018-12-18T08:41:09.354Z,100411.95
2018-12-18T08:43:37.483Z,100410.94
2018-12-18T08:46:10.227Z,100392.61
2018-12-18T08:48:35.668Z,100398.18
2018-12-18T08:51:03.727Z,100413.23
2018-12-18T08:53:31.797Z,100411.61
2018-12-18T08:56:00.625Z,100412.44
2018-12-18T08:58:28.729Z,100409.52
2018-12-18T09:00:56.791Z,100409.34
2018-12-18T09:03:24.853Z,100407.28
2018-12-18T09:05:52.908Z,100400.41
2018-12-18T09:08:21.014Z,100392.80
2018-12-18T09:10:49.154Z,100388.05
2018-12-18T09:13:17.217Z,100381.30
2018-12-18T09:15:50.894Z,100378.06
2018-12-18T09:18:18.954Z,100367.53
2018-12-18T09:20:47.014Z,100364.53
2018-12-18T09:23:15.078Z,100357.86
2018-12-18T09:25:43.255Z,100351.88
2018-12-18T09:28:11.324Z,100352.14
2018-12-18T09:36:35.230Z,100350.68
2018-12-18T09:39:12.204Z,100336.69
2018-12-18T09:41:40.744Z,100337.28
2018-12-18T09:44:10.803Z,100339.56
2018-12-18T09:46:38.895Z,100342.69
2018-12-18T09:49:06.944Z,100342.60
2018-12-18T09:51:35.008Z,100341.34
2018-12-18T09:54:03.125Z,100333.76
2018-12-18T09:56:33.110Z,100329.05
2018-12-18T09:59:01.193Z,100331.61
2018-12-18T10:01:29.320Z,100318.48
2018-12-18T10:03:57.409Z,100304.98
2018-12-18T10:06:25.516Z,100299.22
2018-12-18T10:08:53.592Z,100300.99
2018-12-18T10:11:21.658Z,100291.88
2018-12-18T10:13:49.726Z,100283.56
2018-12-18T10:16:17.807Z,100273.14
2018-12-18T10:18:45.888Z,100262.01
2018-12-18T10:21:14.052Z,100250.48
2018-12-18T10:23:43.338Z,100250.19
2018-12-18T10:26:11.472Z,100247.31
2018-12-18T10:28:39.527Z,100246.16
2018-12-18T10:31:07.593Z,100240.03
2018-12-18T10:33:35.751Z,100238.84
2018-12-18T10:36:03.877Z,100234.00
2018-12-18T10:38:32.106Z,100230.98
2018-12-18T10:41:01.307Z,100236.25
2018-12-18T10:43:29.402Z,100231.10
2018-12-18T10:45:57.457Z,100232.84
2018-12-18T10:48:25.525Z,100232.73
2018-12-18T10:50:53.615Z,100224.97
2018-12-18T10:53:21.684Z,100221.58
2018-12-18T10:55:49.742Z,100218.47
2018-12-18T10:58:23.830Z,100218.45
2018-12-18T11:00:53.711Z,100206.22
2018-12-18T11:03:21.959Z,100197.41
2018-12-18T11:05:50.024Z,100190.63
2018-12-18T11:08:18.170Z,100191.03
2018-12-18T11:10:46.352Z,100187.23
2018-12-18T11:13:17.290Z,100182.06
2018-12-18T11:15:45.558Z,100181.48
2018-12-18T11:18:13.723Z,100174.84
2018-12-18T11:20:41.904Z,100177.66
2018-12-18T11:23:09.965Z,100174.44
2018-12-18T11:25:38.323Z,100176.28
2018-12-18T11:28:06.446Z,100180.02
2018-12-18T11:30:34.592Z,100178.80
2018-12-18T11:33:02.654Z,100180.50
2018-12-18T11:35:30.808Z,100172.27
2018-12-18T11:37:58.875Z,100167.32
2018-12-18T11:40:26.967Z,100163.69
2018-12-18T11:42:55.034Z,100161.45
2018-12-18T11:45:23.139Z,100155.72
2018-12-18T11:47:51.241Z,100150.42
2018-12-18T11:50:20.357Z,100143.45
2018-12-18T11:52:48.407Z,100136.52
2018-12-18T11:55:16.469Z,100128.99
2018-12-18T11:57:44.615Z,100135.61
2018-12-18T12:00:13.946Z,100137.12
2018-12-18T12:02:42.937Z,100142.25
2018-12-18T12:05:11.298Z,100132.11
2018-12-18T12:07:39.571Z,100131.09
2018-12-18T12:10:07.793Z,100128.29
2018-12-18T12:12:35.849Z,100129.13
2018-12-18T12:15:05.132Z,100126.98
2018-12-18T12:17:33.332Z,100120.85
2018-12-18T12:20:01.400Z,100109.77
2018-12-18T12:22:29.582Z,100114.48
2018-12-18T12:24:57.692Z,100114.67
2018-12-18T12:27:31.211Z,100110.70
2018-12-18T12:29:59.275Z,100107.23
2018-12-18T12:32:27.358Z,100103.20
2018-12-18T12:34:55.438Z,100097.56
2018-12-18T12:37:23.495Z,100091.91
2018-12-18T12:39:51.598Z,100082.08
2018-12-18T12:42:20.795Z,100079.21
2018-12-18T12:44:48.871Z,100078.88
2018-12-18T12:47:16.971Z,100074.64
2018-12-18T12:49:45.065Z,100073.81
2018-12-18T12:52:13.310Z,100068.24
2018-12-18T12:54:41.393Z,100066.61
2018-12-18T12:57:09.551Z,100064.14
2018-12-18T12:59:38.758Z,100060.83
2018-12-18T13:02:06.870Z,100054.21
2018-12-18T13:04:35.015Z,100054.11
2018-12-18T13:07:03.122Z,100047.88
2018-12-18T13:09:31.277Z,100042.09
2018-12-18T13:11:59.342Z,100037.77
2018-12-18T13:14:27.414Z,100027.83
2018-12-18T13:16:55.487Z,100025.81
2018-12-18T13:19:23.560Z,100024.73
2018-12-18T13:21:51.627Z,100025.11
2018-12-18T13:24:19.832Z,100026.99
2018-12-18T13:26:47.902Z,100022.70
2018-12-18T13:29:15.958Z,100017.96
2018-12-18T13:31:44.150Z,100013.50
2018-12-18T13:34:12.214Z,100016.53
2018-12-18T13:36:43.129Z,100014.17
2018-12-18T13:39:10.327Z,100015.17
2018-12-18T13:41:39.186Z,100013.08
2018-12-18T13:44:07.259Z,100006.34
2018-12-18T13:46:35.317Z,100002.63
2018-12-18T13:49:03.424Z,99996.51
2018-12-18T13:51:31.486Z,99991.84
2018-12-18T13:53:59.542Z,99984.88
2018-12-18T13:56:27.610Z,99977.30
2018-12-18T13:58:55.682Z,99980.89
2018-12-18T14:01:23.980Z,99975.66
2018-12-18T14:03:52.039Z,99972.05
2018-12-18T14:06:21.235Z,99972.59
2018-12-18T14:08:49.286Z,99971.90
2018-12-18T14:11:17.412Z,99973.23
2018-12-18T14:13:45.486Z,99972.02
2018-12-18T14:16:13.564Z,99960.19
2018-12-18T14:18:41.687Z,99961.59
2018-12-18T14:21:09.740Z,99962.59
2018-12-18T14:23:37.826Z,99963.40
2018-12-18T14:26:07.751Z,99956.91
2018-12-18T14:28:35.834Z,99959.14
2018-12-18T14:31:03.902Z,99955.75
2018-12-18T14:33:31.983Z,99956.23
2018-12-18T14:36:00.050Z,99952.12
2018-12-18T14:38:28.186Z,99944.49
2018-12-18T14:40:56.280Z,99946.83
2018-12-18T14:43:34.587Z,99936.59
2018-12-18T14:46:04.181Z,99931.30
2018-12-18T14:48:32.342Z,99920.30
2018-12-18T14:54:15.097Z,99905.62
2018-12-18T14:56:46.854Z,99886.97
2018-12-18T14:59:17.356Z,99894.64
2018-12-18T15:01:45.497Z,99906.95
2018-12-18T15:04:13.596Z,99900.12
2018-12-18T15:06:42.968Z,99889.52
2018-12-18T15:09:13.054Z,99889.56
2018-12-18T15:11:41.139Z,99884.92
2018-12-18T15:14:09.292Z,99893.02
2018-12-18T15:16:39.707Z,99896.13
2018-12-18T15:19:07.775Z,99899.51
2018-12-18T15:21:35.892Z,99896.11
2018-12-18T15:24:22.082Z,99895.06
2018-12-18T15:26:50.207Z,99884.03
2018-12-18T15:29:19.299Z,99885.27
2018-12-18T15:31:47.411Z,99884.73
2018-12-18T15:34:15.499Z,99880.88
2018-12-18T15:36:43.677Z,99881.44
2018-12-18T15:39:11.754Z,99881.00
2018-12-18T15:41:39.816Z,99890.67
2018-12-18T15:44:07.908Z,99891.54
2018-12-18T15:46:35.983Z,99886.39
2018-12-18T15:49:04.111Z,99887.58
2018-12-18T15:51:32.179Z,99883.61
2018-12-18T15:54:00.353Z,99880.53
2018-12-18T15:56:28.533Z,99876.56
2018-12-18T15:58:56.623Z,99876.42
2018-12-18T16:01:40.785Z,99880.23
2018-12-18T16:04:08.855Z,99872.58
2018-12-18T16:06:36.919Z,99870.11
2018-12-18T16:09:08.155Z,99872.25
2018-12-18T16:11:36.234Z,99865.31
2018-12-18T16:14:04.470Z,99856.80
2018-12-18T16:16:32.608Z,99859.05
2018-12-18T16:19:00.659Z,99860.07
2018-12-18T16:21:28.819Z,99862.55
2018-12-18T16:23:56.916Z,99855.23
2018-12-18T16:26:25.123Z,99843.44
2018-12-18T16:28:53.971Z,99842.73
2018-12-18T16:31:22.146Z,99842.95
2018-12-18T16:33:50.222Z,99832.32
2018-12-18T16:36:18.287Z,99837.81
2018-12-18T16:38:46.351Z,99844.11
2018-12-18T16:41:15.310Z,99835.89
2018-12-18T16:43:43.357Z,99834.69
2018-12-18T16:46:12.529Z,99833.53
2018-12-18T16:48:40.631Z,99830.12
2018-12-18T17:03:26.435Z,99819.23
2018-12-18T17:06:07.812Z,99813.36
2018-12-18T17:08:36.929Z,99795.48
2018-12-18T17:11:24.661Z,99783.09
2018-12-18T17:13:54.686Z,99784.72
2018-12-18T17:16:23.109Z,99780.84
2018-12-18T17:21:58.197Z,99765.56
2018-12-18T17:24:26.246Z,99766.84
2018-12-18T17:26:54.325Z,99750.18
2018-12-18T17:29:22.424Z,99748.61
2018-12-18T17:31:50.488Z,99749.41
2018-12-18T17:34:19.754Z,99740.58
2018-12-18T17:36:47.852Z,99729.63
2018-12-18T17:39:15.954Z,99732.26
2018-12-18T17:41:44.034Z,99726.73
2018-12-18T17:44:12.162Z,99716.44
2018-12-18T17:46:40.225Z,99719.16
2018-12-18T17:49:08.282Z,99714.97
2018-12-18T17:51:36.417Z,99709.79
2018-12-18T17:54:04.512Z,99707.03
2018-12-18T17:56:32.562Z,99700.60
2018-12-18T17:59:00.610Z,99697.23
2018-12-18T18:01:28.714Z,99684.41
2018-12-18T18:03:56.766Z,99684.05
2018-12-18T18:06:24.823Z,99670.73
2018-12-18T18:08:52.920Z,99661.16
2018-12-18T18:11:21.006Z,99664.09
2018-12-18T18:13:49.071Z,99654.24
2018-12-18T18:16:17.955Z,99646.82
2018-12-18T18:18:46.005Z,99637.05
2018-12-18T18:21:14.054Z,99625.39
2018-12-18T18:23:42.116Z,99627.30
2018-12-18T18:26:11.998Z,99610.38
2018-12-18T18:28:40.063Z,99619.43
2018-12-18T18:31:08.155Z,99625.08
2018-12-18T18:33:37.331Z,99629.49
2018-12-18T18:36:05.379Z,99621.94
2018-12-18T18:38:33.435Z,99627.97
2018-12-18T18:41:01.534Z,99625.27
2018-12-18T18:43:29.609Z,99622.95
2018-12-18T18:45:57.698Z,99623.46
2018-12-18T18:48:25.759Z,99617.97
2018-12-18T18:50:53.905Z,99611.87
2018-12-18T18:53:22.055Z,99616.23
2018-12-18T18:55:50.197Z,99615.66
2018-12-18T18:58:19.474Z,99615.19
2018-12-18T19:00:47.519Z,99611.30
2018-12-18T19:03:15.599Z,99601.10
2018-12-18T19:05:43.718Z,99593.35
2018-12-18T19:08:11.810Z,99598.89
2018-12-18T19:10:39.947Z,99585.39
2018-12-18T19:13:08.006Z,99581.20
2018-12-18T19:15:36.110Z,99586.30
2018-12-18T19:18:04.183Z,99599.59
2018-12-18T19:20:32.268Z,99595.94
2018-12-18T19:23:00.327Z,99599.52
2018-12-18T19:25:28.370Z,99599.56
2018-12-18T19:27:56.456Z,99592.67
2018-12-18T19:30:24.499Z,99585.70
2018-12-18T19:32:52.855Z,99581.74
2018-12-18T19:35:20.902Z,99575.80
2018-12-18T19:37:48.954Z,99575.67
2018-12-18T19:40:17.215Z,99564.34
2018-12-18T19:42:45.347Z,99564.02
2018-12-18T19:45:13.417Z,99561.85
2018-12-18T19:47:41.558Z,99556.55
2018-12-18T19:50:09.731Z,99544.12
2018-12-18T19:52:37.792Z,99537.53
2018-12-18T19:55:05.919Z,99542.69
2018-12-18T19:57:33.962Z,99538.11
2018-12-18T20:00:02.024Z,99537.67
2018-12-18T20:02:30.162Z,99542.42
2018-12-18T20:04:59.048Z,99545.02
2018-12-18T20:07:27.127Z,99547.56
2018-12-18T20:09:55.195Z,99546.70
2018-12-18T20:12:23.676Z,99536.48
2018-12-18T20:14:51.778Z,99538.72
2018-12-18T20:17:20.045Z,99523.34
2018-12-18T20:19:48.469Z,99523.89
2018-12-18T20:22:16.514Z,99523.58
2018-12-18T20:24:44.701Z,99520.19
2018-12-18T20:27:12.751Z,99523.89
2018-12-18T20:29:41.038Z,99531.33
2018-12-18T20:32:09.093Z,99527.08
2018-12-18T20:34:37.226Z,99522.82
2018-12-18T20:37:05.315Z,99511.23
2018-12-18T20:39:33.492Z,99492.33
2018-12-18T20:42:01.538Z,99490.17
2018-12-18T20:44:29.627Z,99494.38
2018-12-18T20:46:57.811Z,99484.64
2018-12-18T20:49:25.896Z,99476.88
2018-12-18T20:51:53.946Z,99471.20
2018-12-18T20:57:23.564Z,99459.53
2018-12-18T20:59:52.839Z,99458.48
2018-12-18T21:02:21.002Z,99454.87
2018-12-18T21:04:49.153Z,99444.08
2018-12-18T21:07:17.429Z,99434.91
2018-12-18T21:09:45.586Z,99426.06
2018-12-18T21:12:14.420Z,99412.77
2018-12-18T21:14:42.518Z,99419.39
2018-12-18T21:17:14.507Z,99419.23
2018-12-18T21:19:42.871Z,99416.17
2018-12-18T21:22:11.127Z,99417.88
2018-12-18T21:24:39.281Z,99413.05
2018-12-18T21:27:08.325Z,99423.13
2018-12-18T21:29:36.441Z,99428.69
2018-12-18T21:32:04.611Z,99422.64
2018-12-18T21:34:33.308Z,99423.78
2018-12-18T21:37:16.523Z,99413.83
2018-12-18T21:39:45.498Z,99420.20
2018-12-18T21:42:13.610Z,99418.32
2018-12-18T21:44:41.825Z,99409.66
2018-12-18T21:47:09.933Z,99398.43
2018-12-18T21:49:39.255Z,99399.10
2018-12-18T21:52:08.443Z,99404.93
2018-12-18T21:54:36.519Z,99404.06
2018-12-18T21:57:04.585Z,99401.66
2018-12-18T21:59:33.597Z,99399.97
2018-12-18T22:02:01.828Z,99398.72
2018-12-18T22:04:30.230Z,99393.86
2018-12-18T22:06:58.344Z,99379.09
2018-12-18T22:09:26.456Z,99364.79
2018-12-18T22:11:54.582Z,99358.80
2018-12-18T22:14:22.700Z,99347.23
2018-12-18T22:16:51.204Z,99335.05
2018-12-18T22:19:21.756Z,99323.44
2018-12-18T22:21:49.849Z,99332.77
2018-12-18T22:24:18.037Z,99336.28
2018-12-18T22:26:46.272Z,99344.00
2018-12-18T22:29:14.517Z,99358.77
2018-12-18T22:31:50.811Z,99350.27
2018-12-18T22:34:19.385Z,99338.13
2018-12-18T22:36:48.093Z,99345.85
2018-12-18T22:39:18.464Z,99337.77
2018-12-18T22:41:59.359Z,99330.95
2018-12-18T22:44:35.264Z,99324.58
2018-12-18T22:47:14.295Z,99322.56
2018-12-18T22:49:43.125Z,99320.05
2018-12-18T22:52:12.234Z,99311.77
2018-12-18T22:54:42.208Z,99304.67
2018-12-18T22:57:10.377Z,99302.66
2018-12-18T23:02:36.362Z,99290.98
2018-12-18T23:05:04.946Z,99277.34
2018-12-18T23:07:33.005Z,99273.14
2018-12-18T23:10:01.086Z,99262.09
2018-12-18T23:12:29.128Z,99268.27
2018-12-18T23:14:57.754Z,99273.39
2018-12-18T23:17:25.838Z,99284.42
2018-12-18T23:19:53.894Z,99278.84
2018-12-18T23:22:21.951Z,99280.64
2018-12-18T23:24:50.031Z,99289.70
2018-12-18T23:27:18.094Z,99300.77
2018-12-18T23:29:46.171Z,99320.89
2018-12-18T23:32:14.214Z,99326.62
2018-12-18T23:34:42.266Z,99307.51
2018-12-18T23:37:10.364Z,99316.83
2018-12-18T23:39:38.461Z,99319.66
2018-12-18T23:42:06.568Z,99293.82
2018-12-18T23:47:37.502Z,99287.47
2018-12-18T23:50:06.270Z,99286.52
2018-12-18T23:52:34.362Z,99287.16
2018-12-18T23:55:02.474Z,99291.33
2018-12-18T23:57:30.539Z,99288.97
2018-12-18T23:59:58.583Z,99292.16
